Time;durP1;ratioP1;P1;durP2;ratioP2;P2;SDS_P1;SDS_P2;PMS_P1;PMS_P2;Temp;Humidity;BMP_temperature;BMP_pressure;BME280_temperature;BME280_humidity;BME280_pressure;Samples;Min_cycle;Max_cycle;Signal;HPM_P1;HPM_P2
2022/01/05 00:00:47;;;;;;;3.57;1.60;;;5.70;99.90;;;;;;5061936;28;20620;-43
2022/01/05 00:03:13;;;;;;;4.33;1.80;;;5.70;99.90;;;;;;5063036;28;20246;-43
2022/01/05 00:05:39;;;;;;;6.30;1.97;;;5.80;99.90;;;;;;5065433;28;20276;-43
2022/01/05 00:08:04;;;;;;;5.47;1.80;;;5.50;99.90;;;;;;5066718;28;20212;-43
2022/01/05 00:10:30;;;;;;;5.00;1.73;;;5.90;99.90;;;;;;5061395;28;20458;-42
2022/01/05 00:12:56;;;;;;;4.80;2.30;;;5.80;99.90;;;;;;5060101;28;20204;-42
2022/01/05 00:15:22;;;;;;;6.23;2.50;;;5.80;99.90;;;;;;5072330;28;20181;-43
2022/01/05 00:17:47;;;;;;;7.97;2.37;;;5.80;99.90;;;;;;5086901;28;20593;-43
2022/01/05 00:20:13;;;;;;;4.27;2.80;;;5.50;99.90;;;;;;5075355;28;20513;-43
2022/01/05 00:22:39;;;;;;;9.70;3.90;;;5.60;99.90;;;;;;5090123;28;20203;-45
2022/01/05 00:25:06;;;;;;;6.27;3.17;;;5.50;99.90;;;;;;5077656;28;20873;-43
2022/01/05 00:27:31;;;;;;;4.97;2.23;;;5.50;99.90;;;;;;5063195;28;20612;-42
2022/01/05 00:29:58;;;;;;;6.03;2.40;;;5.60;99.90;;;;;;5069377;28;20533;-44
2022/01/05 00:32:24;;;;;;;4.27;2.10;;;5.50;99.90;;;;;;5070610;28;20286;-43
2022/01/05 00:34:52;;;;;;;4.53;2.83;;;5.50;99.90;;;;;;5069308;28;20419;-43
2022/01/05 00:37:18;;;;;;;5.43;2.07;;;5.30;99.90;;;;;;5070578;28;20446;-42
2022/01/05 00:39:44;;;;;;;4.83;2.27;;;5.40;99.90;;;;;;5070431;28;20506;-44
2022/01/05 00:45:31;;;;;;;5.87;3.20;;;5.30;99.90;;;;;;5065772;28;21024;-43
2022/01/05 00:47:57;;;;;;;6.40;2.60;;;5.10;99.90;;;;;;5069967;28;20565;-43
2022/01/05 00:50:23;;;;;;;3.27;2.73;;;5.30;99.90;;;;;;5070668;28;20220;-43
2022/01/05 00:52:48;;;;;;;7.00;4.73;;;5.20;99.90;;;;;;5069762;28;20673;-43
2022/01/05 00:55:14;;;;;;;5.57;3.50;;;5.10;99.90;;;;;;5070522;28;20246;-43
2022/01/05 00:57:40;;;;;;;5.20;3.27;;;5.30;99.90;;;;;;5059441;28;20252;-43
2022/01/05 01:00:12;;;;;;;5.23;3.47;;;5.20;99.90;;;;;;5063307;28;20178;-42
2022/01/05 01:02:38;;;;;;;4.87;3.07;;;5.20;99.90;;;;;;5068497;28;20177;-43
2022/01/05 01:05:04;;;;;;;4.67;3.10;;;5.00;99.90;;;;;;5070190;28;20442;-42
2022/01/05 01:07:29;;;;;;;4.43;3.40;;;5.00;99.90;;;;;;5070540;28;20216;-42
2022/01/05 01:09:55;;;;;;;4.87;3.60;;;5.10;99.90;;;;;;5068828;28;20758;-44
2022/01/05 01:12:21;;;;;;;7.93;4.37;;;5.20;99.90;;;;;;5067795;28;20177;-42
2022/01/05 01:14:46;;;;;;;4.93;3.73;;;5.20;99.90;;;;;;5063591;28;20351;-42
2022/01/05 01:17:12;;;;;;;5.80;3.60;;;5.10;99.90;;;;;;5073885;28;20271;-42
2022/01/05 01:19:38;;;;;;;5.47;4.03;;;5.00;99.90;;;;;;5069416;28;20288;-43
2022/01/05 01:22:03;;;;;;;5.27;4.13;;;5.10;99.90;;;;;;5069497;28;20189;-44
2022/01/05 01:24:29;;;;;;;6.50;3.57;;;5.10;99.90;;;;;;5069492;28;20208;-43
2022/01/05 01:26:55;;;;;;;6.50;4.17;;;5.10;99.90;;;;;;5069575;28;20298;-42
2022/01/05 01:29:20;;;;;;;6.07;4.10;;;5.20;99.90;;;;;;5055966;28;20794;-43
2022/01/05 01:31:47;;;;;;;8.27;4.73;;;5.10;99.90;;;;;;5067737;28;20541;-44
2022/01/05 01:34:13;;;;;;;5.83;4.43;;;5.00;99.90;;;;;;5071672;28;20648;-42
2022/01/05 01:36:39;;;;;;;9.67;4.90;;;4.90;99.90;;;;;;5069313;28;20430;-44
2022/01/05 01:39:05;;;;;;;7.00;4.30;;;4.80;99.90;;;;;;5068247;28;20193;-43
2022/01/05 01:41:30;;;;;;;8.00;5.40;;;4.90;99.90;;;;;;5069092;28;20544;-44
2022/01/05 01:43:56;;;;;;;6.37;4.90;;;5.10;99.90;;;;;;5058092;28;20197;-43
2022/01/05 01:46:22;;;;;;;6.73;5.40;;;5.20;99.90;;;;;;5069066;28;20179;-42
2022/01/05 01:48:48;;;;;;;6.27;4.63;;;5.20;99.90;;;;;;5069620;28;20211;-42
2022/01/05 01:51:14;;;;;;;6.90;4.63;;;5.10;99.90;;;;;;5068599;28;20459;-43
2022/01/05 01:53:40;;;;;;;9.00;5.20;;;5.20;99.90;;;;;;5068860;28;20263;-42
2022/01/05 01:56:08;;;;;;;9.83;5.50;;;5.20;99.90;;;;;;5068105;28;20429;-46
2022/01/05 01:58:35;;;;;;;8.70;4.50;;;5.10;99.90;;;;;;5062106;28;20965;-43
2022/01/05 02:01:01;;;;;;;8.80;5.10;;;5.20;99.90;;;;;;5061820;28;20439;-42
2022/01/05 02:03:26;;;;;;;9.03;4.83;;;5.20;99.90;;;;;;5068799;28;21037;-42
2022/01/05 02:05:52;;;;;;;6.23;4.50;;;5.30;99.90;;;;;;5069095;28;20861;-42
2022/01/05 02:08:18;;;;;;;10.90;4.77;;;5.10;99.90;;;;;;5068499;28;20332;-43
2022/01/05 02:10:44;;;;;;;10.37;4.70;;;5.10;99.90;;;;;;5068396;28;20185;-43
2022/01/05 02:13:10;;;;;;;6.00;4.47;;;4.90;99.90;;;;;;5064250;28;20173;-43
2022/01/05 02:15:36;;;;;;;8.67;4.50;;;5.00;99.90;;;;;;5063369;28;20427;-42
2022/01/05 02:20:28;;;;;;;7.73;4.20;;;5.10;99.90;;;;;;5068724;28;20647;-42
2022/01/05 02:22:55;;;;;;;8.17;3.87;;;5.00;99.90;;;;;;5068193;28;20200;-42
2022/01/05 02:25:21;;;;;;;6.47;3.90;;;5.10;99.90;;;;;;5068811;28;20508;-42
2022/01/05 02:27:48;;;;;;;7.00;3.97;;;5.00;99.90;;;;;;5067373;28;20760;-42
2022/01/05 02:30:19;;;;;;;7.60;4.10;;;4.90;99.90;;;;;;5059564;28;20454;-43
2022/01/05 02:32:45;;;;;;;6.57;4.10;;;5.20;99.90;;;;;;5073557;28;20416;-44
2022/01/05 02:35:11;;;;;;;7.13;4.87;;;5.00;99.90;;;;;;5087916;28;20438;-45
2022/01/05 02:37:47;;;;;;;14.63;5.17;;;5.10;99.90;;;;;;5079017;28;20196;-44
2022/01/05 02:40:16;;;;;;;9.40;5.50;;;5.00;99.90;;;;;;5087947;28;20838;-42
2022/01/05 02:42:42;;;;;;;10.70;6.80;;;4.90;99.90;;;;;;5088468;28;20430;-42
2022/01/05 02:45:09;;;;;;;14.13;6.70;;;5.00;99.90;;;;;;5055042;28;20446;-42
2022/01/05 02:47:36;;;;;;;8.40;6.57;;;5.10;99.90;;;;;;5067992;28;20459;-43
2022/01/05 02:50:04;;;;;;;11.50;7.17;;;5.00;99.90;;;;;;5067117;28;20457;-42
2022/01/05 02:52:30;;;;;;;12.40;8.23;;;5.00;99.90;;;;;;5068197;28;20459;-42
2022/01/05 02:54:55;;;;;;;16.70;8.30;;;4.80;99.90;;;;;;5067936;28;20846;-43
2022/01/05 02:57:21;;;;;;;15.60;8.43;;;4.90;99.90;;;;;;5067910;28;20212;-43
2022/01/05 02:59:47;;;;;;;11.30;8.80;;;4.80;99.90;;;;;;5061299;28;20197;-42
2022/01/05 03:02:12;;;;;;;13.00;8.80;;;5.10;99.90;;;;;;5066752;28;20196;-42
2022/01/05 03:04:38;;;;;;;14.30;10.10;;;5.00;99.90;;;;;;5068226;28;20189;-42
2022/01/05 03:07:04;;;;;;;17.23;9.10;;;4.90;99.90;;;;;;5067695;28;20582;-43
2022/01/05 03:09:30;;;;;;;14.93;8.17;;;4.80;99.90;;;;;;5067988;28;20212;-44
2022/01/05 03:11:55;;;;;;;11.57;8.93;;;4.70;99.90;;;;;;5067092;28;20470;-44
2022/01/05 03:14:21;;;;;;;12.60;9.30;;;4.90;99.90;;;;;;5059170;28;20201;-45
2022/01/05 03:16:47;;;;;;;11.80;8.83;;;4.90;99.90;;;;;;5067482;28;20551;-43
2022/01/05 03:19:13;;;;;;;10.57;7.53;;;4.80;99.90;;;;;;5067513;28;20431;-44
2022/01/05 03:21:38;;;;;;;9.80;7.20;;;4.90;99.90;;;;;;5066903;28;20288;-41
2022/01/05 03:24:05;;;;;;;12.03;8.10;;;5.00;99.90;;;;;;5067812;28;20189;-42
2022/01/05 03:26:31;;;;;;;10.63;6.60;;;5.20;99.90;;;;;;5067507;28;20199;-43
2022/01/05 03:28:56;;;;;;;8.40;5.33;;;4.90;99.90;;;;;;5060911;28;20821;-42
2022/01/05 03:31:22;;;;;;;8.00;5.40;;;4.80;99.90;;;;;;5055820;28;20878;-44
2022/01/05 03:33:48;;;;;;;8.90;5.73;;;4.80;99.90;;;;;;5066401;28;20648;-42
2022/01/05 03:36:13;;;;;;;9.80;6.00;;;4.90;99.90;;;;;;5067500;28;20670;-43
2022/01/05 03:38:39;;;;;;;9.00;6.03;;;4.70;99.90;;;;;;5067529;28;20185;-43
2022/01/05 03:41:05;;;;;;;8.60;5.43;;;4.80;99.90;;;;;;5066969;28;20197;-42
2022/01/05 03:43:30;;;;;;;10.37;5.17;;;4.90;99.90;;;;;;5066846;28;20488;-44
2022/01/05 03:45:56;;;;;;;11.90;5.80;;;4.90;99.90;;;;;;5055913;28;20191;-42
2022/01/05 03:48:22;;;;;;;13.23;5.80;;;4.60;99.90;;;;;;5066820;28;20304;-44
2022/01/05 03:50:48;;;;;;;9.53;5.10;;;4.70;99.90;;;;;;5065421;28;20315;-42
2022/01/05 03:53:14;;;;;;;6.43;4.43;;;4.60;99.90;;;;;;5066923;28;20419;-42
2022/01/05 03:55:42;;;;;;;7.50;4.60;;;4.60;99.90;;;;;;5067009;28;20422;-43
2022/01/05 03:58:09;;;;;;;9.20;5.00;;;4.30;99.90;;;;;;5067141;28;20204;-46
2022/01/05 04:00:41;;;;;;;7.20;4.60;;;4.40;99.90;;;;;;5052880;28;20450;-44
2022/01/05 04:03:06;;;;;;;8.93;4.03;;;4.50;99.90;;;;;;5067072;28;20819;-42
2022/01/05 04:05:32;;;;;;;11.43;5.13;;;4.50;99.90;;;;;;5067363;28;20453;-42
2022/01/05 04:07:58;;;;;;;7.10;4.47;;;4.70;99.90;;;;;;5066903;28;20766;-45
2022/01/05 04:10:24;;;;;;;11.10;4.77;;;4.30;99.90;;;;;;5066479;28;20200;-42
2022/01/05 04:12:50;;;;;;;8.57;3.90;;;4.50;99.90;;;;;;5066920;28;20193;-42
2022/01/05 04:15:16;;;;;;;11.53;4.03;;;4.30;99.90;;;;;;5059690;28;20435;-42
2022/01/05 04:17:42;;;;;;;7.53;4.63;;;4.40;99.90;;;;;;5063432;28;20192;-43
2022/01/05 04:20:09;;;;;;;5.53;3.57;;;4.40;99.90;;;;;;5066641;28;20419;-44
2022/01/05 04:22:34;;;;;;;7.30;3.57;;;4.20;99.90;;;;;;5067413;28;20435;-42
2022/01/05 04:25:00;;;;;;;8.80;4.40;;;4.10;99.90;;;;;;5067224;28;20461;-42
2022/01/05 04:27:26;;;;;;;7.70;3.67;;;4.20;99.90;;;;;;5066948;28;20636;-42
2022/01/05 04:29:52;;;;;;;11.30;4.20;;;4.10;99.90;;;;;;5058892;28;20570;-42
2022/01/05 04:32:18;;;;;;;6.87;4.00;;;4.10;99.90;;;;;;5063404;28;20511;-42
2022/01/05 04:34:43;;;;;;;8.13;3.40;;;4.00;99.90;;;;;;5066691;28;20598;-43
2022/01/05 04:37:09;;;;;;;12.27;3.87;;;4.10;99.90;;;;;;5066974;28;20189;-42
2022/01/05 04:39:35;;;;;;;9.43;4.20;;;4.00;99.90;;;;;;5066170;28;20632;-45
2022/01/05 04:42:02;;;;;;;8.23;3.40;;;4.30;99.90;;;;;;5066550;28;20201;-43
2022/01/05 04:44:27;;;;;;;13.80;4.43;;;4.00;99.90;;;;;;5061444;28;20428;-42
2022/01/05 04:46:53;;;;;;;11.53;4.03;;;3.90;99.90;;;;;;5062288;28;20488;-42
2022/01/05 04:49:19;;;;;;;9.20;4.80;;;4.00;99.90;;;;;;5065243;28;20220;-43
2022/01/05 04:51:45;;;;;;;11.33;4.10;;;4.00;99.90;;;;;;5066133;28;20228;-43
2022/01/05 04:54:10;;;;;;;9.57;3.97;;;4.00;99.90;;;;;;5066574;28;20189;-44
2022/01/05 04:56:36;;;;;;;11.80;3.50;;;3.90;99.90;;;;;;5065284;28;20266;-43
2022/01/05 04:59:02;;;;;;;10.20;4.30;;;3.90;99.90;;;;;;5063933;28;20193;-43
2022/01/05 05:01:28;;;;;;;7.77;4.07;;;3.90;99.90;;;;;;5055758;28;20637;-42
2022/01/05 05:03:54;;;;;;;6.33;3.50;;;3.70;99.90;;;;;;5066589;28;20431;-43
2022/01/05 05:06:20;;;;;;;5.90;3.40;;;3.90;99.90;;;;;;5066749;28;20647;-42
2022/01/05 05:08:45;;;;;;;5.53;3.00;;;4.00;99.90;;;;;;5069784;28;20699;-43
2022/01/05 05:11:11;;;;;;;8.53;3.23;;;3.80;99.90;;;;;;5069291;28;20797;-42
2022/01/05 05:13:36;;;;;;;9.77;4.50;;;4.10;99.90;;;;;;5069903;28;20611;-42
2022/01/05 05:16:02;;;;;;;8.63;3.07;;;4.00;99.90;;;;;;5062303;28;20224;-42
2022/01/05 05:18:28;;;;;;;7.43;3.00;;;3.80;99.90;;;;;;5070256;28;20192;-45
2022/01/05 05:20:54;;;;;;;6.60;3.03;;;3.70;99.90;;;;;;5069316;28;20520;-42
2022/01/05 05:23:19;;;;;;;10.43;2.60;;;3.60;99.90;;;;;;5069814;28;20272;-43
2022/01/05 05:25:45;;;;;;;8.20;3.43;;;3.40;99.90;;;;;;5069756;28;20196;-42
2022/01/05 05:28:11;;;;;;;8.20;3.43;;;3.60;99.90;;;;;;5069951;28;20289;-43
2022/01/05 05:30:36;;;;;;;7.83;3.03;;;3.70;99.90;;;;;;5058855;28;20197;-42
2022/01/05 05:33:05;;;;;;;6.27;2.60;;;3.60;99.90;;;;;;5069810;28;20189;-42
2022/01/05 05:35:31;;;;;;;6.93;2.43;;;3.80;99.90;;;;;;5069801;28;20200;-42
2022/01/05 05:37:57;;;;;;;6.20;2.50;;;3.60;99.90;;;;;;5068282;28;20490;-42
2022/01/05 05:40:24;;;;;;;5.80;2.13;;;3.70;99.90;;;;;;5069131;28;20839;-42
2022/01/05 05:42:50;;;;;;;6.63;2.40;;;3.60;99.90;;;;;;5084630;28;20459;-43
2022/01/05 05:45:16;;;;;;;5.97;2.93;;;3.80;99.90;;;;;;5060609;28;21026;-42
2022/01/05 05:47:41;;;;;;;5.30;2.87;;;3.40;99.90;;;;;;5069318;28;20470;-42
2022/01/05 05:50:08;;;;;;;7.20;2.50;;;3.70;99.90;;;;;;5069249;28;20918;-42
2022/01/05 05:52:34;;;;;;;7.63;3.60;;;3.40;99.90;;;;;;5069532;28;20217;-42
2022/01/05 05:55:00;;;;;;;8.37;2.93;;;3.40;99.90;;;;;;5069447;28;20949;-43
2022/01/05 05:57:26;;;;;;;4.67;2.37;;;3.30;99.90;;;;;;5068629;28;20720;-42
2022/01/05 05:59:51;;;;;;;4.37;2.50;;;3.40;99.90;;;;;;5062267;28;20604;-42
2022/01/05 06:02:17;;;;;;;4.80;2.47;;;3.40;99.90;;;;;;5063448;28;20432;-44
2022/01/05 06:04:43;;;;;;;9.43;3.50;;;3.40;99.90;;;;;;5069239;28;20619;-43
2022/01/05 06:07:08;;;;;;;10.43;3.53;;;3.40;99.90;;;;;;5068760;28;20250;-42
2022/01/05 06:09:34;;;;;;;5.80;2.60;;;3.40;99.90;;;;;;5068855;28;20671;-42
2022/01/05 06:12:00;;;;;;;10.97;3.13;;;3.30;99.90;;;;;;5068728;28;20775;-42
2022/01/05 06:14:25;;;;;;;10.43;3.63;;;3.40;99.90;;;;;;5067012;28;20178;-42
2022/01/05 06:16:51;;;;;;;7.20;4.30;;;3.50;99.90;;;;;;5066224;28;20187;-44
2022/01/05 06:19:17;;;;;;;11.17;3.90;;;3.40;99.90;;;;;;5068619;28;20301;-42
2022/01/05 06:21:44;;;;;;;7.27;3.87;;;3.50;99.90;;;;;;5068080;28;20255;-43
2022/01/05 06:24:11;;;;;;;9.17;3.17;;;3.40;99.90;;;;;;5068690;28;20189;-42
2022/01/05 06:26:37;;;;;;;10.20;3.50;;;3.50;99.90;;;;;;5068820;28;21114;-43
2022/01/05 06:29:02;;;;;;;9.80;3.30;;;3.60;99.90;;;;;;5068615;28;20540;-42
2022/01/05 06:31:28;;;;;;;10.30;3.70;;;3.30;99.90;;;;;;5060356;28;20280;-47
2022/01/05 06:33:54;;;;;;;10.93;3.40;;;3.50;99.90;;;;;;5068373;28;20246;-42
2022/01/05 06:36:20;;;;;;;10.37;3.30;;;3.70;99.90;;;;;;5068556;28;20600;-42
2022/01/05 06:38:45;;;;;;;6.40;3.73;;;3.50;99.90;;;;;;5068658;28;20193;-43
2022/01/05 06:41:11;;;;;;;7.17;3.33;;;3.60;99.90;;;;;;5067533;28;20185;-42
2022/01/05 06:43:37;;;;;;;8.77;3.33;;;3.60;99.90;;;;;;5068470;28;20694;-42
2022/01/05 06:46:02;;;;;;;9.40;4.00;;;3.40;99.90;;;;;;5058128;28;20201;-43
2022/01/05 06:48:28;;;;;;;7.13;3.50;;;3.40;99.90;;;;;;5068286;28;20217;-43
2022/01/05 06:50:54;;;;;;;6.53;3.30;;;3.50;99.90;;;;;;5067652;28;20414;-43
2022/01/05 06:53:20;;;;;;;10.43;3.20;;;3.40;99.90;;;;;;5068113;28;20432;-41
2022/01/05 06:55:45;;;;;;;7.47;3.90;;;3.50;99.90;;;;;;5067767;28;20185;-43
2022/01/05 06:58:11;;;;;;;8.03;3.13;;;3.40;99.90;;;;;;5068018;28;20205;-43
2022/01/05 07:00:37;;;;;;;7.80;2.63;;;3.40;99.90;;;;;;5059008;28;20200;-43
2022/01/05 07:03:04;;;;;;;9.27;3.13;;;3.70;99.90;;;;;;5072321;28;20200;-42
2022/01/05 07:05:31;;;;;;;9.20;3.47;;;3.60;99.90;;;;;;5067929;28;20197;-41
2022/01/05 07:07:56;;;;;;;9.23;3.07;;;3.40;99.90;;;;;;5067981;28;20698;-42
2022/01/05 07:10:22;;;;;;;5.40;3.00;;;3.40;99.90;;;;;;5066733;28;20497;-42
2022/01/05 07:12:48;;;;;;;7.50;3.23;;;3.60;99.90;;;;;;5068207;28;20185;-43
2022/01/05 07:15:14;;;;;;;7.80;3.00;;;3.50;99.90;;;;;;5062588;28;20738;-43
2022/01/05 07:17:41;;;;;;;8.70;3.50;;;3.80;99.90;;;;;;5061816;28;20424;-42
2022/01/05 07:20:08;;;;;;;11.33;3.90;;;3.50;99.90;;;;;;5066933;28;20790;-44
2022/01/05 07:22:34;;;;;;;10.70;3.37;;;3.80;99.90;;;;;;5067253;28;20435;-43
2022/01/05 07:25:00;;;;;;;11.10;3.10;;;3.80;99.90;;;;;;5079842;28;20427;-42
2022/01/05 07:27:25;;;;;;;7.43;2.43;;;3.60;99.90;;;;;;5066173;28;21054;-42
2022/01/05 07:29:51;;;;;;;9.77;3.40;;;3.70;99.90;;;;;;5078731;28;20732;-42
2022/01/05 07:32:17;;;;;;;9.37;3.20;;;3.80;99.90;;;;;;5062093;28;20185;-43
2022/01/05 07:34:42;;;;;;;7.37;3.17;;;3.50;99.90;;;;;;5067598;28;20227;-42
2022/01/05 07:37:09;;;;;;;8.30;3.20;;;3.70;99.90;;;;;;5066882;28;20189;-43
2022/01/05 07:39:36;;;;;;;7.57;2.80;;;3.80;99.90;;;;;;5068140;28;20200;-42
2022/01/05 07:42:02;;;;;;;6.50;3.90;;;3.70;99.90;;;;;;5078276;28;20928;-42
2022/01/05 07:44:28;;;;;;;11.73;4.23;;;3.50;99.90;;;;;;5074810;28;20428;-43
2022/01/05 07:46:54;;;;;;;7.90;3.53;;;3.70;99.90;;;;;;5062423;28;20879;-43
2022/01/05 07:49:19;;;;;;;7.97;3.43;;;3.70;99.90;;;;;;5067360;28;20274;-42
2022/01/05 07:51:45;;;;;;;5.00;2.80;;;3.60;99.90;;;;;;5077680;28;20184;-42
2022/01/05 07:54:11;;;;;;;6.77;3.40;;;3.70;99.90;;;;;;5083604;28;20669;-42
2022/01/05 07:56:37;;;;;;;6.33;3.23;;;3.80;99.90;;;;;;5087305;28;20307;-43
2022/01/05 07:59:03;;;;;;;9.80;4.07;;;3.50;99.90;;;;;;5087775;28;20192;-42
2022/01/05 08:01:29;;;;;;;6.50;3.53;;;3.50;99.90;;;;;;5061038;28;20455;-44
2022/01/05 08:03:55;;;;;;;10.13;3.70;;;3.70;99.90;;;;;;5066864;28;20820;-43
2022/01/05 08:06:21;;;;;;;7.20;3.17;;;3.80;99.90;;;;;;5067077;28;20536;-42
2022/01/05 08:08:48;;;;;;;8.50;3.53;;;3.70;99.90;;;;;;5066546;28;20201;-42
2022/01/05 08:11:14;;;;;;;12.23;5.57;;;4.00;99.90;;;;;;5066575;28;20485;-42
2022/01/05 08:13:40;;;;;;;9.67;3.73;;;3.70;99.90;;;;;;5077128;28;20521;-41
2022/01/05 08:16:06;;;;;;;9.77;3.93;;;3.90;99.90;;;;;;5061301;28;20673;-42
2022/01/05 08:18:32;;;;;;;7.97;3.17;;;4.00;99.90;;;;;;5063892;28;20430;-44
2022/01/05 08:20:58;;;;;;;9.37;3.47;;;4.10;99.90;;;;;;5066631;28;20529;-43
2022/01/05 08:23:23;;;;;;;10.67;3.37;;;3.90;99.90;;;;;;5082835;28;20196;-42
2022/01/05 08:25:50;;;;;;;6.47;3.30;;;3.90;99.90;;;;;;5057169;28;20595;-45
2022/01/05 08:28:18;;;;;;;9.20;3.00;;;4.00;99.90;;;;;;5064906;28;20209;-42
2022/01/05 08:30:45;;;;;;;8.70;3.40;;;4.10;99.90;;;;;;5060870;28;20825;-42
2022/01/05 08:33:12;;;;;;;7.40;3.73;;;4.00;99.90;;;;;;5066469;28;20427;-42
2022/01/05 08:35:38;;;;;;;11.23;4.50;;;4.20;99.90;;;;;;5066601;28;20414;-42
2022/01/05 08:38:04;;;;;;;9.93;3.23;;;4.00;99.90;;;;;;5078925;28;20872;-42
2022/01/05 08:40:31;;;;;;;11.50;3.60;;;4.20;99.90;;;;;;5065886;28;20423;-42
2022/01/05 08:42:57;;;;;;;10.77;3.83;;;4.10;99.90;;;;;;5088674;28;20479;-42
2022/01/05 08:45:23;;;;;;;8.50;4.13;;;4.00;99.90;;;;;;5087846;28;20430;-44
2022/01/05 08:47:51;;;;;;;11.83;3.90;;;4.10;99.90;;;;;;5056744;28;20462;-42
2022/01/05 08:50:20;;;;;;;6.20;4.73;;;4.20;99.90;;;;;;5068232;28;20506;-42
2022/01/05 08:52:46;;;;;;;9.33;4.07;;;4.00;99.90;;;;;;5069685;28;20486;-42
2022/01/05 08:55:13;;;;;;;13.70;4.20;;;4.00;99.90;;;;;;5069712;28;20453;-42
2022/01/05 08:57:42;;;;;;;7.20;3.77;;;4.10;99.90;;;;;;5069291;28;20488;-41
2022/01/05 09:00:10;;;;;;;14.40;4.47;;;4.10;99.90;;;;;;5067831;28;20476;-44
2022/01/05 09:02:36;;;;;;;8.67;4.17;;;4.20;99.90;;;;;;5065766;28;20438;-44
2022/01/05 09:05:03;;;;;;;8.20;3.70;;;4.20;99.90;;;;;;5069519;28;20407;-43
2022/01/05 09:07:29;;;;;;;8.60;4.73;;;4.20;99.90;;;;;;5070001;28;20458;-43
2022/01/05 09:09:54;;;;;;;10.23;4.43;;;4.20;99.90;;;;;;5069428;28;20428;-42
2022/01/05 09:12:21;;;;;;;9.80;4.37;;;4.40;99.90;;;;;;5070439;28;20188;-46
2022/01/05 09:14:47;;;;;;;7.70;3.60;;;4.40;99.90;;;;;;5069296;28;20219;-42
2022/01/05 09:17:12;;;;;;;9.53;4.10;;;4.20;99.90;;;;;;5063115;28;20813;-44
2022/01/05 09:19:38;;;;;;;8.57;4.50;;;4.10;99.90;;;;;;5068607;28;20476;-42
2022/01/05 09:22:05;;;;;;;7.57;5.40;;;4.10;99.90;;;;;;5069686;28;20364;-43
2022/01/05 09:24:32;;;;;;;15.47;5.77;;;4.20;99.90;;;;;;5069869;28;20173;-48
2022/01/05 09:27:02;;;;;;;7.50;4.20;;;4.50;99.90;;;;;;5069599;28;20416;-43
2022/01/05 09:29:29;;;;;;;9.43;4.77;;;4.40;99.90;;;;;;5069811;28;20463;-43
2022/01/05 09:31:55;;;;;;;11.20;5.10;;;4.60;99.90;;;;;;5061119;28;20518;-46
2022/01/05 09:34:21;;;;;;;8.80;4.80;;;4.30;99.90;;;;;;5066548;28;20415;-45
2022/01/05 09:36:51;;;;;;;10.50;4.80;;;4.30;99.90;;;;;;5069442;28;20423;-42
2022/01/05 09:42:05;;;;;;;18.20;6.27;;;4.40;99.90;;;;;;5069245;28;20419;-44
2022/01/05 09:44:34;;;;;;;14.80;5.90;;;4.50;99.90;;;;;;5069196;28;20424;-42
2022/01/05 09:47:08;;;;;;;15.10;6.93;;;4.30;99.90;;;;;;5062144;28;20464;-43
2022/01/05 09:49:37;;;;;;;15.13;6.87;;;4.60;99.90;;;;;;5068606;28;20458;-42
2022/01/05 09:52:05;;;;;;;15.47;7.53;;;4.30;99.90;;;;;;5069313;28;20411;-42
2022/01/05 09:54:33;;;;;;;9.30;6.67;;;4.30;99.90;;;;;;5069110;28;20455;-45
2022/01/05 09:56:59;;;;;;;11.90;7.03;;;4.30;99.90;;;;;;5068816;28;20955;-45
2022/01/05 09:59:25;;;;;;;12.53;6.80;;;4.30;99.90;;;;;;5069620;28;20473;-45
2022/01/05 10:01:51;;;;;;;10.53;6.50;;;4.50;99.90;;;;;;5059977;28;20198;-44
2022/01/05 10:04:16;;;;;;;13.13;7.83;;;4.30;99.90;;;;;;5066270;28;20427;-44
2022/01/05 10:06:42;;;;;;;11.30;6.50;;;4.60;99.90;;;;;;5068927;28;20193;-42
2022/01/05 10:09:09;;;;;;;15.10;6.67;;;4.40;99.90;;;;;;5069158;28;20251;-43
2022/01/05 10:11:35;;;;;;;11.07;6.00;;;4.40;99.90;;;;;;5067928;28;20423;-46
2022/01/05 10:14:02;;;;;;;11.27;6.37;;;4.70;99.90;;;;;;5068843;28;20416;-43
2022/01/05 10:16:28;;;;;;;14.60;7.80;;;4.70;99.90;;;;;;5074949;28;20428;-42
2022/01/05 10:18:53;;;;;;;10.50;6.13;;;4.60;99.90;;;;;;5061757;28;20425;-43
2022/01/05 10:21:19;;;;;;;16.20;6.97;;;4.80;99.90;;;;;;5068024;28;20514;-42
2022/01/05 10:23:50;;;;;;;10.97;6.47;;;4.70;99.90;;;;;;5068629;28;20504;-43
2022/01/05 10:26:20;;;;;;;10.00;5.87;;;4.70;99.90;;;;;;5068417;28;20201;-43
2022/01/05 10:28:46;;;;;;;11.73;6.07;;;4.80;99.90;;;;;;5068372;28;20474;-42
2022/01/05 10:31:16;;;;;;;10.23;6.17;;;4.60;99.90;;;;;;5064719;28;20813;-45
2022/01/05 10:33:42;;;;;;;12.23;6.27;;;4.50;99.90;;;;;;5059781;28;20423;-42
2022/01/05 10:36:08;;;;;;;15.63;6.40;;;4.50;99.90;;;;;;5068856;28;20415;-42
2022/01/05 10:38:34;;;;;;;9.73;6.60;;;4.70;99.90;;;;;;5068088;28;20219;-42
2022/01/05 10:41:15;;;;;;;16.33;6.83;;;4.30;99.90;;;;;;5067783;28;20197;-42
2022/01/05 10:44:17;;;;;;;8.37;6.20;;;4.50;99.90;;;;;;5068199;28;20177;-43
2022/01/05 10:46:46;;;;;;;8.70;5.30;;;4.20;99.90;;;;;;5063316;28;20466;-42
2022/01/05 10:49:23;;;;;;;7.70;4.83;;;4.30;99.90;;;;;;5063627;28;21069;-42
2022/01/05 10:51:48;;;;;;;12.60;6.30;;;4.30;99.90;;;;;;5059643;28;20426;-43
2022/01/05 10:54:16;;;;;;;10.67;5.60;;;4.40;99.90;;;;;;5068269;28;20432;-43
2022/01/05 10:56:43;;;;;;;12.27;5.27;;;4.40;99.90;;;;;;5067925;28;20207;-42
2022/01/05 10:59:10;;;;;;;10.37;5.37;;;4.40;99.90;;;;;;5067726;28;20416;-45
2022/01/05 11:01:36;;;;;;;9.70;5.93;;;4.10;99.90;;;;;;5061920;28;20796;-42
2022/01/05 11:04:16;;;;;;;9.10;5.87;;;4.30;99.90;;;;;;5066178;28;20467;-42
2022/01/05 11:07:03;;;;;;;9.70;5.10;;;4.30;99.90;;;;;;5062109;28;20431;-42
2022/01/05 11:09:31;;;;;;;6.80;6.10;;;4.40;99.90;;;;;;5067794;28;20828;-42
2022/01/05 11:11:58;;;;;;;11.33;5.40;;;4.30;99.90;;;;;;5066800;28;20423;-42
2022/01/05 11:14:31;;;;;;;11.93;6.00;;;4.30;99.90;;;;;;5067724;28;20829;-42
2022/01/05 11:17:02;;;;;;;11.33;6.33;;;4.30;99.90;;;;;;5061714;28;20467;-46
2022/01/05 11:19:38;;;;;;;11.07;5.63;;;4.30;99.90;;;;;;5060404;28;20556;-42
2022/01/05 11:22:08;;;;;;;14.20;6.50;;;4.30;99.90;;;;;;5062358;28;20445;-42
2022/01/05 11:24:37;;;;;;;11.07;5.80;;;4.40;99.90;;;;;;5067302;28;20495;-42
2022/01/05 11:27:06;;;;;;;9.73;5.53;;;4.30;99.90;;;;;;5067499;28;20462;-42
2022/01/05 11:29:33;;;;;;;12.93;5.80;;;4.20;99.90;;;;;;5067614;28;20506;-42
2022/01/05 11:32:04;;;;;;;7.90;5.30;;;4.30;99.90;;;;;;5061111;28;20440;-43
2022/01/05 11:34:30;;;;;;;9.33;5.13;;;4.30;99.90;;;;;;5064728;28;20697;-44
2022/01/05 11:36:57;;;;;;;12.10;5.40;;;4.10;99.90;;;;;;5065768;28;20477;-42
2022/01/05 11:39:23;;;;;;;10.40;6.20;;;4.40;99.90;;;;;;5067732;28;20435;-42
2022/01/05 11:41:51;;;;;;;7.43;5.63;;;4.20;99.90;;;;;;5066628;28;20430;-43
2022/01/05 11:44:17;;;;;;;7.80;5.67;;;4.20;99.90;;;;;;5067361;28;20462;-43
2022/01/05 11:46:46;;;;;;;10.40;5.70;;;4.30;99.90;;;;;;5064634;28;20434;-42
2022/01/05 11:49:23;;;;;;;8.83;6.33;;;4.20;99.90;;;;;;5058041;28;20487;-42
2022/01/05 11:51:51;;;;;;;11.23;5.80;;;4.20;99.90;;;;;;5059252;28;20518;-42
2022/01/05 11:54:25;;;;;;;9.30;5.80;;;4.30;99.90;;;;;;5067618;28;20434;-42
2022/01/05 11:56:57;;;;;;;9.97;6.17;;;4.30;99.90;;;;;;5066993;28;20497;-43
2022/01/05 11:59:36;;;;;;;11.13;6.70;;;4.50;99.90;;;;;;5067307;28;20806;-43
2022/01/05 12:02:17;;;;;;;13.57;6.57;;;4.40;99.90;;;;;;5061483;28;21057;-42
2022/01/05 12:04:52;;;;;;;13.93;7.10;;;4.60;99.90;;;;;;5059109;28;20809;-42
2022/01/05 12:07:39;;;;;;;12.17;6.70;;;4.70;99.90;;;;;;5066784;28;20411;-42
2022/01/05 12:10:16;;;;;;;13.47;7.10;;;4.50;99.90;;;;;;5066728;28;20526;-42
2022/01/05 12:12:57;;;;;;;10.37;5.90;;;4.70;99.90;;;;;;5066764;28;20426;-44
2022/01/05 12:15:38;;;;;;;11.27;6.30;;;4.60;99.90;;;;;;5072550;28;20494;-49
2022/01/05 12:18:05;;;;;;;14.93;6.50;;;4.60;99.90;;;;;;5068866;28;20485;-42
2022/01/05 12:20:36;;;;;;;16.27;7.50;;;4.60;99.90;;;;;;5070404;28;20419;-46
2022/01/05 12:23:14;;;;;;;10.27;6.80;;;4.80;99.90;;;;;;5070581;28;20449;-42
2022/01/05 12:26:07;;;;;;;12.47;7.50;;;4.70;99.90;;;;;;5071201;28;20429;-42
2022/01/05 12:28:36;;;;;;;12.27;7.27;;;4.70;99.90;;;;;;5058133;28;20546;-42
2022/01/05 12:31:03;;;;;;;10.13;7.37;;;4.90;99.90;;;;;;5070189;28;20447;-41
2022/01/05 12:33:49;;;;;;;13.83;7.07;;;4.90;99.90;;;;;;5060620;28;20432;-42
2022/01/05 12:36:44;;;;;;;14.07;8.00;;;4.90;99.90;;;;;;5067770;28;20419;-42
2022/01/05 12:39:10;;;;;;;12.97;7.90;;;5.00;99.90;;;;;;5052023;28;20859;-42
2022/01/05 12:41:44;;;;;;;12.50;7.90;;;4.90;99.90;;;;;;5069784;28;20419;-41
2022/01/05 12:44:13;;;;;;;12.97;8.27;;;4.80;99.90;;;;;;5070417;28;20600;-42
2022/01/05 12:46:44;;;;;;;23.20;9.40;;;4.90;99.90;;;;;;5070653;28;20424;-43
2022/01/05 12:49:13;;;;;;;16.00;9.10;;;4.70;99.90;;;;;;5059479;28;20455;-42
2022/01/05 12:51:48;;;;;;;10.57;7.30;;;4.90;99.90;;;;;;5069927;28;20431;-42
2022/01/05 12:54:21;;;;;;;14.40;8.03;;;4.80;99.90;;;;;;5070194;28;20654;-43
2022/01/05 12:56:55;;;;;;;14.33;8.43;;;5.00;99.90;;;;;;5070351;28;20584;-43
2022/01/05 12:59:31;;;;;;;15.80;8.20;;;5.10;99.90;;;;;;5057337;28;20885;-45
2022/01/05 13:02:01;;;;;;;12.83;8.67;;;5.00;99.90;;;;;;5068125;28;20823;-42